Lent, Minnesota
Current Conditions -  °F | °C
As of 2:16 AM on Monday 24 Nov 2014 (Local Time) from KCBG Reporting Station
Overcast Overcast  
Wind Chill: 26°   Ceiling: 1400
Heat Index: 34°   Visibility: 10mi
Dew Point: 27°   Wind: 10mph
Humidity: 75%   Direction: 290°WNW
Pressure: 29.28"   Gusts: NA
Location:  45.406°N, 93.0079°W
Report Text: KCBG 240816Z AUTO 29009KT 10SM OVC014 01/M03 A2928 RMK AO2
Loading
Personal Weather Stations






























Interactive Weather Map New forecast layout! Learn more

10-Day Weather Forecast

Advertisements
Track Severe Weather on mobile